createdAt,value
2022-11-26T00:00:25.838Z,100489.78
2022-11-26T00:02:30.860Z,100483.59
2022-11-26T00:04:33.571Z,100492.03
2022-11-26T00:06:39.531Z,100494.28
2022-11-26T00:08:41.608Z,100499.03
2022-11-26T00:10:44.294Z,100495.03
2022-11-26T00:12:46.831Z,100488.69
2022-11-26T00:14:49.158Z,100482.72
2022-11-26T00:16:51.274Z,100493.25
2022-11-26T00:18:53.331Z,100472.16
2022-11-26T00:20:59.838Z,100490.03
2022-11-26T00:23:04.472Z,100481.25
2022-11-26T00:25:13.090Z,100489.31
2022-11-26T00:27:15.100Z,100484.31
2022-11-26T00:29:17.234Z,100490.97
2022-11-26T00:31:20.339Z,100491.38
2022-11-26T00:33:23.326Z,100486.75
2022-11-26T00:35:25.891Z,100487.84
2022-11-26T00:37:34.166Z,100490.69
2022-11-26T00:39:37.036Z,100464.22
2022-11-26T00:41:39.440Z,100478.28
2022-11-26T00:43:42.078Z,100482.13
2022-11-26T00:45:45.281Z,100493.69
2022-11-26T00:47:47.382Z,100467.81
2022-11-26T00:49:49.403Z,100469.91
2022-11-26T00:51:51.515Z,100478.97
2022-11-26T00:53:55.692Z,100485.28
2022-11-26T00:55:57.954Z,100477.00
2022-11-26T00:57:59.899Z,100495.09
2022-11-26T01:00:02.295Z,100481.47
2022-11-26T01:02:04.269Z,100488.09
2022-11-26T01:04:06.578Z,100475.19
2022-11-26T01:06:14.556Z,100495.63
2022-11-26T01:08:35.909Z,100493.50
2022-11-26T01:10:37.936Z,100500.56
2022-11-26T01:12:40.191Z,100500.09
2022-11-26T01:14:42.480Z,100507.66
2022-11-26T01:16:46.580Z,100487.97
2022-11-26T01:18:50.536Z,100489.84
2022-11-26T01:20:52.652Z,100501.72
2022-11-26T01:22:57.011Z,100498.59
2022-11-26T01:24:58.981Z,100486.75
2022-11-26T01:27:01.043Z,100508.94
2022-11-26T01:29:03.232Z,100508.16
2022-11-26T01:31:05.259Z,100508.72
2022-11-26T01:33:07.837Z,100495.41
2022-11-26T01:35:10.610Z,100495.50
2022-11-26T01:37:14.346Z,100501.72
2022-11-26T01:39:18.944Z,100495.63
2022-11-26T01:41:35.079Z,100498.91
2022-11-26T01:43:43.282Z,100507.06
2022-11-26T01:45:45.917Z,100500.97
2022-11-26T01:47:49.803Z,100497.75
2022-11-26T01:50:32.025Z,100506.88
2022-11-26T01:52:34.192Z,100497.88
2022-11-26T01:54:40.505Z,100499.94
2022-11-26T01:56:52.596Z,100503.59
2022-11-26T01:59:19.023Z,100511.63
2022-11-26T02:01:23.813Z,100497.25
2022-11-26T02:03:28.271Z,100503.13
2022-11-26T02:05:33.570Z,100491.91
2022-11-26T02:07:36.773Z,100483.03
2022-11-26T02:09:39.438Z,100483.91
2022-11-26T02:11:41.705Z,100494.78
2022-11-26T02:13:44.510Z,100506.66
2022-11-26T02:16:18.247Z,100496.34
2022-11-26T02:18:22.292Z,100494.09
2022-11-26T02:20:46.483Z,100500.63
2022-11-26T02:22:57.521Z,100502.75
2022-11-26T02:25:38.617Z,100501.53
2022-11-26T02:27:52.994Z,100509.25
2022-11-26T02:30:10.671Z,100477.09
2022-11-26T02:32:20.887Z,100507.84
2022-11-26T02:34:41.825Z,100513.38
2022-11-26T02:36:59.153Z,100518.13
2022-11-26T02:39:13.083Z,100489.22
2022-11-26T02:41:15.096Z,100513.63
2022-11-26T02:43:17.609Z,100498.28
2022-11-26T02:45:31.058Z,100493.41
2022-11-26T02:47:34.955Z,100518.94
2022-11-26T02:49:39.418Z,100520.84
2022-11-26T02:51:42.876Z,100521.16
2022-11-26T02:53:49.056Z,100521.16
2022-11-26T02:56:01.063Z,100496.34
2022-11-26T02:58:04.287Z,100523.13
2022-11-26T03:00:07.123Z,100517.47
2022-11-26T03:02:19.839Z,100515.50
2022-11-26T03:04:29.709Z,100525.31
2022-11-26T03:06:35.003Z,100526.16
2022-11-26T03:08:37.902Z,100533.16
2022-11-26T03:10:39.929Z,100545.22
2022-11-26T03:12:41.979Z,100530.31
2022-11-26T03:14:44.128Z,100539.06
2022-11-26T03:16:46.229Z,100535.28
2022-11-26T03:18:48.366Z,100556.72
2022-11-26T03:20:52.502Z,100544.06
2022-11-26T03:22:54.787Z,100538.09
2022-11-26T03:24:56.773Z,100539.97
2022-11-26T03:26:59.438Z,100529.56
2022-11-26T03:29:01.418Z,100551.97
2022-11-26T03:31:03.540Z,100541.31
2022-11-26T03:33:05.698Z,100535.41
2022-11-26T03:35:08.305Z,100544.19
2022-11-26T03:37:10.559Z,100548.38
2022-11-26T03:39:13.300Z,100540.66
2022-11-26T03:41:15.322Z,100548.06
2022-11-26T03:43:17.385Z,100540.41
2022-11-26T03:45:19.568Z,100540.41
2022-11-26T03:47:21.671Z,100549.16
2022-11-26T03:49:23.946Z,100536.94
2022-11-26T03:51:26.105Z,100543.38
2022-11-26T03:53:28.024Z,100557.97
2022-11-26T03:55:29.978Z,100543.88
2022-11-26T03:57:32.037Z,100542.66
2022-11-26T03:59:34.136Z,100548.00
2022-11-26T04:01:36.431Z,100557.47
2022-11-26T04:03:39.196Z,100560.34
2022-11-26T04:05:41.460Z,100547.69
2022-11-26T04:07:43.724Z,100555.78
2022-11-26T04:09:45.974Z,100548.66
2022-11-26T04:11:48.133Z,100552.44
2022-11-26T04:13:50.163Z,100553.91
2022-11-26T04:15:52.530Z,100557.66
2022-11-26T04:17:54.638Z,100567.66
2022-11-26T04:19:56.637Z,100556.97
2022-11-26T04:21:58.766Z,100560.78
2022-11-26T04:24:00.815Z,100573.00
2022-11-26T04:26:03.077Z,100559.09
2022-11-26T04:28:05.350Z,100562.09
2022-11-26T04:30:08.020Z,100566.66
2022-11-26T04:32:10.047Z,100554.88
2022-11-26T04:34:12.133Z,100561.63
2022-11-26T04:36:14.124Z,100541.72
2022-11-26T04:38:16.193Z,100568.22
2022-11-26T04:40:18.300Z,100563.88
2022-11-26T04:42:20.502Z,100551.09
2022-11-26T04:44:22.526Z,100569.09
2022-11-26T04:46:24.666Z,100568.56
2022-11-26T04:48:26.768Z,100564.91
2022-11-26T04:50:28.862Z,100572.09
2022-11-26T04:52:30.925Z,100584.88
2022-11-26T04:54:32.991Z,100577.88
2022-11-26T04:56:34.956Z,100573.97
2022-11-26T04:58:37.117Z,100574.22
2022-11-26T05:00:40.201Z,100575.44
2022-11-26T05:02:42.377Z,100588.31
2022-11-26T05:04:44.669Z,100569.81
2022-11-26T05:06:47.028Z,100573.69
2022-11-26T05:08:48.981Z,100586.66
2022-11-26T05:10:58.499Z,100589.88
2022-11-26T05:13:01.242Z,100571.81
2022-11-26T05:15:04.705Z,100563.34
2022-11-26T05:17:06.902Z,100576.44
2022-11-26T05:19:08.926Z,100582.13
2022-11-26T05:21:11.040Z,100573.00
2022-11-26T05:23:13.769Z,100585.91
2022-11-26T05:25:15.952Z,100571.59
2022-11-26T05:27:18.129Z,100567.47
2022-11-26T05:29:20.135Z,100608.31
2022-11-26T05:31:23.449Z,100568.13
2022-11-26T05:33:26.096Z,100597.69
2022-11-26T05:35:28.195Z,100581.34
2022-11-26T05:37:30.572Z,100598.78
2022-11-26T05:39:32.769Z,100595.34
2022-11-26T05:41:35.011Z,100610.66
2022-11-26T05:43:37.176Z,100603.00
2022-11-26T05:45:39.449Z,100583.22
2022-11-26T05:47:41.641Z,100600.22
2022-11-26T05:49:44.167Z,100591.91
2022-11-26T05:51:46.200Z,100592.66
2022-11-26T05:53:48.369Z,100577.69
2022-11-26T05:55:50.409Z,100610.97
2022-11-26T05:57:53.161Z,100587.88
2022-11-26T05:59:55.233Z,100610.78
2022-11-26T06:01:57.830Z,100603.00
2022-11-26T06:03:59.915Z,100615.53
2022-11-26T06:06:02.619Z,100621.63
2022-11-26T06:08:04.912Z,100612.56
2022-11-26T06:10:08.346Z,100619.78
2022-11-26T06:12:10.412Z,100613.78
2022-11-26T06:14:12.506Z,100616.09
2022-11-26T06:16:14.656Z,100626.00
2022-11-26T06:18:17.479Z,100593.44
2022-11-26T06:20:19.641Z,100605.13
2022-11-26T06:22:21.761Z,100610.97
2022-11-26T06:24:24.267Z,100613.44
2022-11-26T06:26:26.315Z,100619.78
2022-11-26T06:28:28.355Z,100620.75
2022-11-26T06:30:30.541Z,100635.19
2022-11-26T06:32:33.269Z,100627.44
2022-11-26T06:34:35.381Z,100633.97
2022-11-26T06:36:37.780Z,100631.97
2022-11-26T06:38:39.968Z,100640.63
2022-11-26T06:40:42.007Z,100640.50
2022-11-26T06:42:52.267Z,100643.97
2022-11-26T06:44:59.488Z,100631.09
2022-11-26T06:47:02.184Z,100632.66
2022-11-26T06:49:05.851Z,100633.97
2022-11-26T06:51:13.390Z,100628.66
2022-11-26T06:53:15.498Z,100638.75
2022-11-26T06:55:17.597Z,100647.09
2022-11-26T06:57:19.619Z,100640.22
2022-11-26T06:59:22.205Z,100656.28
2022-11-26T07:01:26.818Z,100650.88
2022-11-26T07:03:33.223Z,100642.88
2022-11-26T07:05:36.235Z,100653.06
2022-11-26T07:07:39.999Z,100657.72
2022-11-26T07:09:42.346Z,100646.06
2022-11-26T07:11:44.531Z,100649.19
2022-11-26T07:13:46.736Z,100654.50
2022-11-26T07:15:49.010Z,100654.19
2022-11-26T07:17:51.249Z,100645.19
2022-11-26T07:19:53.591Z,100655.63
2022-11-26T07:21:55.660Z,100662.53
2022-11-26T07:23:58.781Z,100661.28
2022-11-26T07:26:02.275Z,100673.16
2022-11-26T07:28:04.713Z,100656.84
2022-11-26T07:30:07.020Z,100670.28
2022-11-26T07:32:09.903Z,100674.28
2022-11-26T07:34:14.868Z,100667.75
2022-11-26T07:36:20.542Z,100668.28
2022-11-26T07:38:22.523Z,100667.97
2022-11-26T07:40:26.249Z,100672.72
2022-11-26T07:42:31.765Z,100672.97
2022-11-26T07:44:33.905Z,100676.84
2022-11-26T07:46:36.440Z,100670.53
2022-11-26T07:48:40.381Z,100668.16
2022-11-26T07:51:26.124Z,100671.25
2022-11-26T07:53:32.595Z,100671.72
2022-11-26T07:55:34.765Z,100674.94
2022-11-26T07:57:36.924Z,100680.19
2022-11-26T07:59:38.973Z,100686.81
2022-11-26T08:01:41.203Z,100679.97
2022-11-26T08:03:46.963Z,100678.38
2022-11-26T08:06:12.225Z,100681.50
2022-11-26T08:08:15.559Z,100673.50
2022-11-26T08:10:18.179Z,100681.72
2022-11-26T08:12:20.390Z,100678.84
2022-11-26T08:14:22.586Z,100686.06
2022-11-26T08:16:27.707Z,100677.59
2022-11-26T08:18:31.556Z,100666.72
2022-11-26T08:20:45.845Z,100652.53
2022-11-26T08:22:48.869Z,100653.41
2022-11-26T08:24:52.054Z,100679.38
2022-11-26T08:26:54.254Z,100680.06
2022-11-26T08:28:56.797Z,100668.94
2022-11-26T08:31:08.071Z,100676.16
2022-11-26T08:33:10.293Z,100673.63
2022-11-26T08:35:12.751Z,100681.03
2022-11-26T08:37:14.820Z,100676.56
2022-11-26T08:39:19.039Z,100686.69
2022-11-26T08:41:21.332Z,100685.09
2022-11-26T08:43:34.676Z,100684.00
2022-11-26T08:45:52.747Z,100678.34
2022-11-26T08:47:55.429Z,100681.66
2022-11-26T08:49:57.739Z,100675.19
2022-11-26T08:51:59.784Z,100675.53
2022-11-26T08:54:02.834Z,100676.22
2022-11-26T08:56:10.265Z,100679.88
2022-11-26T08:58:12.438Z,100674.75
2022-11-26T09:00:15.077Z,100679.88
2022-11-26T09:02:18.973Z,100673.72
2022-11-26T09:04:21.323Z,100674.28
2022-11-26T09:06:25.715Z,100678.84
2022-11-26T09:08:28.415Z,100672.56
2022-11-26T09:10:30.517Z,100683.78
2022-11-26T09:12:32.634Z,100681.97
2022-11-26T09:14:40.550Z,100676.66
2022-11-26T09:16:43.276Z,100689.81
2022-11-26T09:18:45.561Z,100683.66
2022-11-26T09:20:47.603Z,100683.91
2022-11-26T09:22:49.654Z,100686.63
2022-11-26T09:24:52.220Z,100673.63
2022-11-26T09:26:54.470Z,100682.66
2022-11-26T09:28:57.061Z,100683.75
2022-11-26T09:30:59.942Z,100692.72
2022-11-26T09:33:02.116Z,100677.94
2022-11-26T09:35:04.554Z,100688.94
2022-11-26T09:37:07.514Z,100683.81
2022-11-26T09:39:13.390Z,100687.59
2022-11-26T09:41:39.979Z,100686.88
2022-11-26T09:44:00.440Z,100686.75
2022-11-26T09:46:03.871Z,100669.50
2022-11-26T09:48:14.789Z,100684.44
2022-11-26T09:50:21.154Z,100675.75
2022-11-26T09:52:28.802Z,100686.44
2022-11-26T09:54:32.059Z,100681.00
2022-11-26T09:56:34.442Z,100681.72
2022-11-26T09:58:49.771Z,100683.63
2022-11-26T10:00:54.756Z,100656.94
2022-11-26T10:02:58.004Z,100679.06
2022-11-26T10:05:00.631Z,100690.69
2022-11-26T10:07:33.742Z,100678.69
2022-11-26T10:09:35.840Z,100682.94
2022-11-26T10:11:44.523Z,100678.72
2022-11-26T10:13:46.585Z,100679.13
2022-11-26T10:16:12.238Z,100674.91
2022-11-26T10:18:36.034Z,100677.75
2022-11-26T10:21:05.263Z,100676.75
2022-11-26T10:23:13.495Z,100673.41
2022-11-26T10:25:19.694Z,100685.16
2022-11-26T10:27:27.186Z,100668.44
2022-11-26T10:29:39.635Z,100681.06
2022-11-26T10:31:44.864Z,100677.41
2022-11-26T10:34:02.364Z,100684.97
2022-11-26T10:36:09.325Z,100679.63
2022-11-26T10:38:11.452Z,100672.75
2022-11-26T10:40:32.748Z,100677.06
2022-11-26T10:42:48.630Z,100681.56
2022-11-26T10:44:52.888Z,100683.53
2022-11-26T10:46:55.361Z,100677.06
2022-11-26T10:49:23.100Z,100670.06
2022-11-26T10:51:33.301Z,100688.81
2022-11-26T10:54:02.848Z,100678.94
2022-11-26T10:56:07.759Z,100677.25
2022-11-26T10:58:24.187Z,100675.91
2022-11-26T11:00:32.740Z,100681.81
2022-11-26T11:02:41.400Z,100682.63
2022-11-26T11:04:51.068Z,100686.88
2022-11-26T11:06:53.693Z,100693.38
2022-11-26T11:08:57.163Z,100686.94
2022-11-26T11:11:22.666Z,100685.06
2022-11-26T11:13:43.279Z,100688.41
2022-11-26T11:15:45.674Z,100691.56
2022-11-26T11:18:05.835Z,100688.31
2022-11-26T11:20:20.835Z,100691.00
2022-11-26T11:22:23.742Z,100687.13
2022-11-26T11:24:29.476Z,100688.88
2022-11-26T11:26:43.916Z,100688.22
2022-11-26T11:28:51.160Z,100688.66
2022-11-26T11:31:04.677Z,100676.44
2022-11-26T11:33:27.473Z,100695.69
2022-11-26T11:35:32.210Z,100683.88
2022-11-26T11:37:46.911Z,100697.81
2022-11-26T11:40:17.043Z,100684.03
2022-11-26T11:42:19.403Z,100691.56
2022-11-26T11:44:40.120Z,100688.75
2022-11-26T11:47:03.515Z,100688.75
2022-11-26T11:49:32.310Z,100675.00
2022-11-26T11:51:46.754Z,100681.81
2022-11-26T11:54:16.139Z,100677.03
2022-11-26T11:56:27.112Z,100680.69
2022-11-26T11:59:01.627Z,100684.59
2022-11-26T12:01:13.649Z,100687.72
2022-11-26T12:03:45.569Z,100672.72
2022-11-26T12:05:56.515Z,100690.72
2022-11-26T12:08:37.105Z,100680.72
2022-11-26T12:10:59.961Z,100689.06
2022-11-26T12:13:03.208Z,100688.84
2022-11-26T12:15:20.230Z,100689.50
2022-11-26T12:17:40.486Z,100686.75
2022-11-26T12:19:53.729Z,100677.06
2022-11-26T12:22:08.690Z,100689.38
2022-11-26T12:24:13.518Z,100710.94
2022-11-26T12:26:34.179Z,100710.84
2022-11-26T12:29:16.640Z,100701.41
2022-11-26T12:31:32.183Z,100716.06
2022-11-26T12:33:36.117Z,100697.50
2022-11-26T12:35:48.458Z,100700.28
2022-11-26T12:37:53.906Z,100703.16
2022-11-26T12:40:05.369Z,100708.91
2022-11-26T12:42:17.982Z,100689.72
2022-11-26T12:44:31.983Z,100720.59
2022-11-26T12:46:44.921Z,100724.69
2022-11-26T12:48:49.770Z,100698.38
2022-11-26T12:50:59.498Z,100707.59
2022-11-26T12:53:01.578Z,100701.13
2022-11-26T12:55:09.642Z,100701.13
2022-11-26T12:57:30.029Z,100699.41
2022-11-26T12:59:56.786Z,100697.38
2022-11-26T13:01:59.097Z,100691.81
2022-11-26T13:04:36.244Z,100712.03
2022-11-26T13:06:42.868Z,100702.72
2022-11-26T13:09:12.249Z,100699.06
2022-11-26T13:11:30.870Z,100711.03
2022-11-26T13:13:42.291Z,100702.59
2022-11-26T13:16:10.403Z,100704.81
2022-11-26T13:18:21.989Z,100703.94
2022-11-26T13:20:58.001Z,100715.47
2022-11-26T13:23:18.518Z,100714.56
2022-11-26T13:25:33.156Z,100708.47
2022-11-26T13:28:12.002Z,100701.78
2022-11-26T13:30:32.453Z,100702.25
2022-11-26T13:33:13.644Z,100701.66
2022-11-26T13:35:27.981Z,100708.59
2022-11-26T13:37:57.501Z,100711.25
2022-11-26T13:40:37.493Z,100707.94
2022-11-26T13:42:56.453Z,100715.06
2022-11-26T13:45:07.738Z,100720.50
2022-11-26T13:47:30.062Z,100716.38
2022-11-26T13:50:10.642Z,100715.47
2022-11-26T13:52:19.510Z,100725.03
2022-11-26T13:54:27.755Z,100735.56
2022-11-26T13:56:32.421Z,100714.28
2022-11-26T13:58:47.796Z,100709.81
2022-11-26T14:00:50.270Z,100714.72
2022-11-26T14:02:52.797Z,100709.63
2022-11-26T14:04:54.935Z,100721.38
2022-11-26T14:07:06.068Z,100727.72
2022-11-26T14:09:40.194Z,100713.81
2022-11-26T14:11:45.198Z,100710.94
2022-11-26T14:14:25.114Z,100721.28
2022-11-26T14:17:02.196Z,100714.72
2022-11-26T14:19:04.310Z,100713.50
2022-11-26T14:21:06.255Z,100711.38
2022-11-26T14:23:45.801Z,100720.81
2022-11-26T14:25:47.927Z,100711.81
2022-11-26T14:27:55.386Z,100707.47
2022-11-26T14:30:08.740Z,100726.91
2022-11-26T14:32:18.363Z,100709.91
2022-11-26T14:34:29.107Z,100719.06
2022-11-26T14:36:31.531Z,100717.03
2022-11-26T14:38:35.541Z,100729.94
2022-11-26T14:40:38.822Z,100716.81
2022-11-26T14:43:19.606Z,100727.69
2022-11-26T14:45:24.876Z,100732.16
2022-11-26T14:47:31.822Z,100730.91
2022-11-26T14:49:47.623Z,100727.69
2022-11-26T14:51:53.753Z,100725.16
2022-11-26T14:53:59.082Z,100742.69
2022-11-26T14:56:06.302Z,100743.72
2022-11-26T14:58:18.248Z,100739.47
2022-11-26T15:00:30.617Z,100738.00
2022-11-26T15:02:32.939Z,100742.56
2022-11-26T15:04:41.923Z,100754.03
2022-11-26T15:06:44.275Z,100754.25
2022-11-26T15:08:49.607Z,100756.34
2022-11-26T15:10:59.952Z,100759.91
2022-11-26T15:13:15.398Z,100759.25
2022-11-26T15:15:23.836Z,100760.59
2022-11-26T15:17:33.671Z,100754.69
2022-11-26T15:19:38.514Z,100756.94
2022-11-26T15:21:41.397Z,100755.28
2022-11-26T15:23:45.753Z,100748.25
2022-11-26T15:25:56.551Z,100751.81
2022-11-26T15:28:06.003Z,100735.25
2022-11-26T15:30:32.435Z,100724.69
2022-11-26T15:32:34.757Z,100726.47
2022-11-26T15:34:38.649Z,100746.16
2022-11-26T15:36:41.020Z,100751.03
2022-11-26T15:39:09.233Z,100747.34
2022-11-26T15:41:20.985Z,100743.38
2022-11-26T15:43:39.904Z,100743.56
2022-11-26T15:45:42.232Z,100746.91
2022-11-26T15:47:50.887Z,100759.22
2022-11-26T15:49:57.565Z,100755.88
2022-11-26T15:52:08.425Z,100741.66
2022-11-26T15:54:30.851Z,100763.47
2022-11-26T15:56:40.854Z,100751.22
2022-11-26T15:58:43.515Z,100745.38
2022-11-26T16:00:53.273Z,100746.25
2022-11-26T16:02:55.620Z,100743.47
2022-11-26T16:04:59.884Z,100735.69
2022-11-26T16:07:25.286Z,100747.69
2022-11-26T16:09:32.864Z,100746.72
2022-11-26T16:11:37.166Z,100740.06
2022-11-26T16:13:40.734Z,100754.47
2022-11-26T16:15:51.707Z,100752.25
2022-11-26T16:17:54.246Z,100748.03
2022-11-26T16:19:59.381Z,100732.16
2022-11-26T16:22:04.673Z,100745.13
2022-11-26T16:24:24.179Z,100743.16
2022-11-26T16:26:27.067Z,100754.38
2022-11-26T16:28:29.342Z,100745.66
2022-11-26T16:30:31.289Z,100741.78
2022-11-26T16:32:33.486Z,100739.81
2022-11-26T16:34:39.275Z,100741.69
2022-11-26T16:36:44.568Z,100736.34
2022-11-26T16:38:47.567Z,100734.13
2022-11-26T16:40:50.735Z,100736.28
2022-11-26T16:42:53.025Z,100736.28
2022-11-26T16:44:55.031Z,100743.81
2022-11-26T16:46:57.169Z,100734.38
2022-11-26T16:48:59.503Z,100741.25
2022-11-26T16:51:01.934Z,100749.03
2022-11-26T16:53:04.010Z,100744.59
2022-11-26T16:55:06.883Z,100744.34
2022-11-26T16:57:22.076Z,100734.78
2022-11-26T16:59:27.427Z,100738.59
2022-11-26T17:01:29.864Z,100747.94
2022-11-26T17:03:34.846Z,100740.03
2022-11-26T17:05:41.351Z,100743.94
2022-11-26T17:07:47.188Z,100741.38
2022-11-26T17:09:49.859Z,100735.50
2022-11-26T17:11:52.258Z,100739.50
2022-11-26T17:13:54.552Z,100737.06
2022-11-26T17:15:57.335Z,100736.94
2022-11-26T17:18:05.679Z,100753.78
2022-11-26T17:20:22.802Z,100727.50
2022-11-26T17:22:25.553Z,100737.47
2022-11-26T17:24:31.376Z,100735.38
2022-11-26T17:26:37.548Z,100720.03
2022-11-26T17:28:39.660Z,100731.47
2022-11-26T17:30:45.118Z,100736.94
2022-11-26T17:32:47.598Z,100744.25
2022-11-26T17:34:50.057Z,100740.38
2022-11-26T17:36:57.480Z,100739.16
2022-11-26T17:39:00.047Z,100754.03
2022-11-26T17:41:02.297Z,100732.25
2022-11-26T17:43:04.539Z,100743.34
2022-11-26T17:45:07.551Z,100750.91
2022-11-26T17:47:25.581Z,100745.00
2022-11-26T17:49:28.877Z,100746.03
2022-11-26T17:51:31.295Z,100759.47
2022-11-26T17:53:33.860Z,100748.72
2022-11-26T17:55:36.846Z,100743.03
2022-11-26T17:57:39.331Z,100732.47
2022-11-26T17:59:42.463Z,100715.59
2022-11-26T18:01:44.852Z,100751.94
2022-11-26T18:03:48.409Z,100755.94
2022-11-26T18:05:50.546Z,100767.47
2022-11-26T18:07:53.284Z,100731.25
2022-11-26T18:09:58.127Z,100747.69
2022-11-26T18:12:01.275Z,100740.25
2022-11-26T18:14:03.743Z,100748.59
2022-11-26T18:16:06.545Z,100744.00
2022-11-26T18:18:08.741Z,100733.22
2022-11-26T18:20:11.142Z,100742.91
2022-11-26T18:22:17.405Z,100725.44
2022-11-26T18:24:19.731Z,100745.91
2022-11-26T18:26:31.011Z,100743.69
2022-11-26T18:28:33.958Z,100737.47
2022-11-26T18:30:36.727Z,100744.91
2022-11-26T18:32:39.570Z,100730.34
2022-11-26T18:34:41.664Z,100738.91
2022-11-26T18:36:43.756Z,100711.09
2022-11-26T18:38:46.209Z,100713.25
2022-11-26T18:40:59.133Z,100732.69
2022-11-26T18:43:01.440Z,100741.13
2022-11-26T18:45:03.739Z,100744.03
2022-11-26T18:47:09.295Z,100736.59
2022-11-26T18:49:11.697Z,100724.38
2022-11-26T18:51:14.557Z,100692.31
2022-11-26T18:53:17.010Z,100726.25
2022-11-26T18:55:19.202Z,100737.34
2022-11-26T18:57:21.368Z,100740.09
2022-11-26T18:59:23.487Z,100725.56
2022-11-26T19:01:29.616Z,100737.00
2022-11-26T19:03:33.643Z,100740.22
2022-11-26T19:05:37.774Z,100729.88
2022-11-26T19:07:40.550Z,100711.47
2022-11-26T19:10:02.738Z,100731.00
2022-11-26T19:12:05.317Z,100763.34
2022-11-26T19:14:08.091Z,100715.00
2022-11-26T19:16:30.639Z,100745.34
2022-11-26T19:18:32.788Z,100750.03
2022-11-26T19:20:35.579Z,100743.56
2022-11-26T19:22:47.145Z,100724.44
2022-11-26T19:24:49.289Z,100744.13
2022-11-26T19:26:51.550Z,100741.00
2022-11-26T19:29:01.655Z,100750.81
2022-11-26T19:31:14.447Z,100728.78
2022-11-26T19:33:34.332Z,100741.91
2022-11-26T19:35:40.625Z,100746.56
2022-11-26T19:37:43.125Z,100757.69
2022-11-26T19:39:45.317Z,100730.53
2022-11-26T19:41:48.040Z,100755.03
2022-11-26T19:43:50.569Z,100760.00
2022-11-26T19:46:07.884Z,100744.22
2022-11-26T19:48:10.146Z,100759.88
2022-11-26T19:50:12.168Z,100749.44
2022-11-26T19:52:14.443Z,100745.97
2022-11-26T19:54:16.401Z,100768.19
2022-11-26T19:56:29.971Z,100769.22
2022-11-26T19:58:34.036Z,100754.44
2022-11-26T20:00:36.619Z,100757.53
2022-11-26T20:02:39.286Z,100753.50
2022-11-26T20:04:42.011Z,100742.06
2022-11-26T20:07:04.005Z,100767.41
2022-11-26T20:09:08.309Z,100763.59
2022-11-26T20:11:11.328Z,100775.72
2022-11-26T20:13:13.610Z,100748.97
2022-11-26T20:15:47.586Z,100754.03
2022-11-26T20:17:49.783Z,100766.25
2022-11-26T20:19:55.104Z,100772.00
2022-11-26T20:21:57.406Z,100770.13
2022-11-26T20:24:04.290Z,100743.34
2022-11-26T20:26:16.225Z,100757.34
2022-11-26T20:28:18.461Z,100777.81
2022-11-26T20:30:22.511Z,100772.88
2022-11-26T20:32:30.670Z,100731.75
2022-11-26T20:34:34.026Z,100749.69
2022-11-26T20:36:37.911Z,100764.25
2022-11-26T20:38:40.464Z,100762.91
2022-11-26T20:40:43.201Z,100772.03
2022-11-26T20:42:46.869Z,100767.28
2022-11-26T20:44:52.179Z,100769.16
2022-11-26T20:46:57.203Z,100763.97
2022-11-26T20:48:59.851Z,100767.41
2022-11-26T20:51:07.922Z,100761.41
2022-11-26T20:53:10.049Z,100779.75
2022-11-26T20:55:12.702Z,100775.75
2022-11-26T20:57:18.185Z,100770.53
2022-11-26T20:59:20.779Z,100783.88
2022-11-26T21:01:26.101Z,100769.88
2022-11-26T21:03:29.595Z,100782.53
2022-11-26T21:05:33.760Z,100792.22
2022-11-26T21:07:36.197Z,100772.84
2022-11-26T21:09:49.693Z,100789.41
2022-11-26T21:11:51.925Z,100800.06
2022-11-26T21:13:54.893Z,100782.06
2022-11-26T21:15:57.566Z,100784.50
2022-11-26T21:18:00.200Z,100774.94
2022-11-26T21:20:05.572Z,100779.97
2022-11-26T21:22:08.134Z,100780.31
2022-11-26T21:24:11.039Z,100770.88
2022-11-26T21:26:19.236Z,100785.22
2022-11-26T21:28:21.965Z,100704.41
2022-11-26T21:30:24.809Z,100792.53
2022-11-26T21:32:27.295Z,100775.19
2022-11-26T21:34:29.560Z,100776.56
2022-11-26T21:36:33.492Z,100779.78
2022-11-26T21:38:36.958Z,100759.84
2022-11-26T21:40:39.222Z,100765.75
2022-11-26T21:42:41.439Z,100775.31
2022-11-26T21:44:43.564Z,100777.56
2022-11-26T21:46:46.393Z,100777.75
2022-11-26T21:48:49.660Z,100788.22
2022-11-26T21:50:51.814Z,100775.97
2022-11-26T21:52:56.197Z,100774.53
2022-11-26T21:55:03.272Z,100763.75
2022-11-26T21:57:11.105Z,100764.78
2022-11-26T21:59:13.742Z,100779.44
2022-11-26T22:01:18.346Z,100781.34
2022-11-26T22:03:20.669Z,100776.03
2022-11-26T22:05:23.546Z,100776.38
2022-11-26T22:07:25.615Z,100777.59
2022-11-26T22:09:29.331Z,100778.00
2022-11-26T22:11:35.820Z,100774.00
2022-11-26T22:13:39.918Z,100779.00
2022-11-26T22:15:44.500Z,100775.00
2022-11-26T22:17:47.152Z,100769.88
2022-11-26T22:19:49.044Z,100774.78
2022-11-26T22:21:51.220Z,100750.44
2022-11-26T22:23:53.574Z,100779.53
2022-11-26T22:25:55.830Z,100775.44
2022-11-26T22:27:57.844Z,100766.66
2022-11-26T22:30:00.031Z,100765.88
2022-11-26T22:32:02.064Z,100778.66
2022-11-26T22:34:08.022Z,100781.94
2022-11-26T22:36:10.333Z,100768.03
2022-11-26T22:38:12.983Z,100773.34
2022-11-26T22:40:15.124Z,100774.00
2022-11-26T22:42:17.163Z,100776.38
2022-11-26T22:44:19.405Z,100765.56
2022-11-26T22:46:23.102Z,100778.94
2022-11-26T22:48:25.330Z,100777.03
2022-11-26T22:50:27.351Z,100782.78
2022-11-26T22:52:29.484Z,100780.47
2022-11-26T22:54:32.145Z,100770.69
2022-11-26T22:56:34.171Z,100789.25
2022-11-26T22:58:36.186Z,100793.13
2022-11-26T23:00:52.046Z,100787.56
2022-11-26T23:02:54.414Z,100782.44
2022-11-26T23:04:56.464Z,100792.53
2022-11-26T23:06:58.646Z,100773.75
2022-11-26T23:09:03.433Z,100754.69
2022-11-26T23:11:07.645Z,100787.13
2022-11-26T23:13:11.920Z,100784.16
2022-11-26T23:15:14.078Z,100775.00
2022-11-26T23:17:16.600Z,100790.56
2022-11-26T23:19:18.694Z,100796.13
2022-11-26T23:21:32.456Z,100795.03
2022-11-26T23:23:37.495Z,100775.38
2022-11-26T23:25:41.069Z,100804.72
2022-11-26T23:27:43.187Z,100798.16
2022-11-26T23:29:45.254Z,100786.25
2022-11-26T23:31:47.338Z,100796.91
2022-11-26T23:33:50.256Z,100780.22
2022-11-26T23:35:52.372Z,100778.00
2022-11-26T23:37:54.417Z,100793.66
2022-11-26T23:39:56.454Z,100719.66
2022-11-26T23:41:58.627Z,100788.81
2022-11-26T23:44:00.704Z,100807.69
2022-11-26T23:46:28.945Z,100800.94
2022-11-26T23:48:31.546Z,100810.50
2022-11-26T23:50:33.723Z,100807.47
2022-11-26T23:52:36.315Z,100797.47
2022-11-26T23:54:38.442Z,100807.69
2022-11-26T23:56:44.523Z,100810.50
2022-11-26T23:58:51.611Z,100792.47
